createdAt,value
2023-05-14T00:00:16.305Z,94740.00
2023-05-14T00:01:16.340Z,94740.00
2023-05-14T00:02:16.354Z,94738.00
2023-05-14T00:03:16.464Z,94738.00
2023-05-14T00:04:16.323Z,94740.00
2023-05-14T00:05:16.266Z,94740.00
2023-05-14T00:06:16.269Z,94740.00
2023-05-14T00:07:16.292Z,94742.00
2023-05-14T00:08:16.257Z,94740.00
2023-05-14T00:09:16.273Z,94742.00
2023-05-14T00:10:16.308Z,94744.00
2023-05-14T00:11:16.241Z,94740.00
2023-05-14T00:12:16.241Z,94740.00
2023-05-14T00:13:16.210Z,94736.00
2023-05-14T00:14:16.226Z,94736.00
2023-05-14T00:15:16.214Z,94736.00
2023-05-14T00:16:16.276Z,94736.00
2023-05-14T00:17:16.179Z,94734.00
2023-05-14T00:18:16.199Z,94734.00
2023-05-14T00:19:16.319Z,94732.00
2023-05-14T00:20:16.199Z,94734.00
2023-05-14T00:21:16.207Z,94728.00
2023-05-14T00:22:16.155Z,94728.00
2023-05-14T00:23:16.165Z,94726.00
2023-05-14T00:24:16.185Z,94726.00
2023-05-14T00:25:16.148Z,94726.00
2023-05-14T00:26:16.134Z,94726.00
2023-05-14T00:27:16.188Z,94726.00
2023-05-14T00:28:16.179Z,94724.00
2023-05-14T00:29:16.203Z,94720.00
2023-05-14T00:30:16.235Z,94722.00
2023-05-14T00:31:16.285Z,94720.00
2023-05-14T00:32:16.296Z,94722.00
2023-05-14T00:33:16.258Z,94722.00
2023-05-14T00:34:16.301Z,94720.00
2023-05-14T00:35:16.278Z,94720.00
2023-05-14T00:36:16.310Z,94720.00
2023-05-14T00:37:16.353Z,94722.00
2023-05-14T00:38:16.331Z,94720.00
2023-05-14T00:39:16.379Z,94722.00
2023-05-14T00:40:16.403Z,94722.00
2023-05-14T00:41:16.413Z,94724.00
2023-05-14T00:42:16.391Z,94724.00
2023-05-14T00:43:16.425Z,94728.00
2023-05-14T00:44:16.467Z,94728.00
2023-05-14T00:45:16.485Z,94726.00
2023-05-14T00:46:16.516Z,94726.00
2023-05-14T00:47:16.493Z,94726.00
2023-05-14T00:48:16.512Z,94726.00
2023-05-14T00:49:16.539Z,94724.00
2023-05-14T00:50:16.561Z,94724.00
2023-05-14T00:51:16.576Z,94722.00
2023-05-14T00:52:16.592Z,94722.00
2023-05-14T00:53:16.656Z,94726.00
2023-05-14T00:54:16.599Z,94722.00
2023-05-14T00:55:16.721Z,94720.00
2023-05-14T00:56:16.683Z,94722.00
2023-05-14T00:57:16.690Z,94720.00
2023-05-14T00:58:16.716Z,94726.00
2023-05-14T00:59:16.719Z,94726.00
2023-05-14T01:00:16.787Z,94724.00
2023-05-14T01:01:16.890Z,94722.00
2023-05-14T01:02:16.757Z,94722.00
2023-05-14T01:03:16.935Z,94724.00
2023-05-14T01:04:16.818Z,94722.00
2023-05-14T01:05:16.865Z,94722.00
2023-05-14T01:06:16.877Z,94720.00
2023-05-14T01:07:16.909Z,94722.00
2023-05-14T01:08:16.951Z,94722.00
2023-05-14T01:09:16.927Z,94720.00
2023-05-14T01:10:16.954Z,94720.00
2023-05-14T01:11:16.989Z,94722.00
2023-05-14T01:12:16.999Z,94717.00
2023-05-14T01:13:17.045Z,94718.00
2023-05-14T01:14:17.044Z,94720.00
2023-05-14T01:15:17.086Z,94717.00
2023-05-14T01:16:17.118Z,94717.00
2023-05-14T01:17:17.102Z,94718.00
2023-05-14T01:18:17.129Z,94717.00
2023-05-14T01:19:17.224Z,94717.00
2023-05-14T01:20:17.191Z,94715.00
2023-05-14T01:21:17.197Z,94715.00
2023-05-14T01:22:17.256Z,94715.00
2023-05-14T01:23:17.267Z,94717.00
2023-05-14T01:24:17.257Z,94717.00
2023-05-14T01:25:17.287Z,94717.00
2023-05-14T01:26:17.319Z,94717.00
2023-05-14T01:27:17.341Z,94718.00
2023-05-14T01:28:17.405Z,94718.00
2023-05-14T01:29:17.387Z,94717.00
2023-05-14T01:30:17.395Z,94717.00
2023-05-14T01:31:17.506Z,94718.00
2023-05-14T01:32:17.671Z,94717.00
2023-05-14T01:33:17.467Z,94718.00
2023-05-14T01:34:17.468Z,94718.00
2023-05-14T01:35:17.541Z,94717.00
2023-05-14T01:36:17.532Z,94717.00
2023-05-14T01:37:17.550Z,94717.00
2023-05-14T01:38:17.586Z,94717.00
2023-05-14T01:39:17.608Z,94718.00
2023-05-14T01:40:17.643Z,94720.00
2023-05-14T01:41:17.645Z,94717.00
2023-05-14T01:42:17.714Z,94718.00
2023-05-14T01:43:17.671Z,94718.00
2023-05-14T01:44:17.701Z,94717.00
2023-05-14T01:45:17.760Z,94717.00
2023-05-14T01:46:17.799Z,94718.00
2023-05-14T01:47:17.738Z,94717.00
2023-05-14T01:48:17.761Z,94718.00
2023-05-14T01:49:17.770Z,94717.00
2023-05-14T01:50:17.835Z,94718.00
2023-05-14T01:51:17.822Z,94718.00
2023-05-14T01:52:17.859Z,94718.00
2023-05-14T01:53:17.874Z,94718.00
2023-05-14T01:54:17.865Z,94718.00
2023-05-14T01:55:17.898Z,94717.00
2023-05-14T01:56:17.932Z,94713.00
2023-05-14T01:57:17.928Z,94713.00
2023-05-14T01:58:17.955Z,94713.00
2023-05-14T01:59:17.991Z,94715.00
2023-05-14T02:00:18.015Z,94715.00
2023-05-14T02:01:18.115Z,94713.00
2023-05-14T02:02:18.077Z,94711.00
2023-05-14T02:03:18.098Z,94711.00
2023-05-14T02:04:18.189Z,94711.00
2023-05-14T02:05:18.153Z,94711.00
2023-05-14T02:06:18.161Z,94711.00
2023-05-14T02:07:18.180Z,94711.00
2023-05-14T02:08:18.219Z,94709.00
2023-05-14T02:09:18.258Z,94709.00
2023-05-14T02:10:18.280Z,94711.00
2023-05-14T02:11:18.293Z,94707.00
2023-05-14T02:12:18.299Z,94709.00
2023-05-14T02:13:18.342Z,94707.00
2023-05-14T02:14:18.384Z,94705.00
2023-05-14T02:15:18.420Z,94705.00
2023-05-14T02:16:18.448Z,94701.00
2023-05-14T02:17:18.473Z,94703.00
2023-05-14T02:18:18.482Z,94701.00
2023-05-14T02:19:18.509Z,94701.00
2023-05-14T02:20:18.532Z,94699.00
2023-05-14T02:21:18.512Z,94697.00
2023-05-14T02:22:18.578Z,94697.00
2023-05-14T02:23:19.498Z,94697.00
2023-05-14T02:24:18.648Z,94699.00
2023-05-14T02:25:18.665Z,94697.00
2023-05-14T02:26:18.721Z,94695.00
2023-05-14T02:27:18.708Z,94697.00
2023-05-14T02:28:18.720Z,94697.00
2023-05-14T02:29:18.756Z,94697.00
2023-05-14T02:30:18.799Z,94697.00
2023-05-14T02:31:18.825Z,94695.00
2023-05-14T02:32:18.892Z,94697.00
2023-05-14T02:33:19.019Z,94695.00
2023-05-14T02:34:18.904Z,94693.00
2023-05-14T02:35:18.972Z,94695.00
2023-05-14T02:36:18.979Z,94697.00
2023-05-14T02:37:19.031Z,94693.00
2023-05-14T02:38:19.054Z,94691.00
2023-05-14T02:39:19.028Z,94689.00
2023-05-14T02:40:19.102Z,94687.00
2023-05-14T02:41:19.105Z,94687.00
2023-05-14T02:42:19.143Z,94685.00
2023-05-14T02:43:19.174Z,94685.00
2023-05-14T02:44:19.168Z,94681.00
2023-05-14T02:45:19.254Z,94683.00
2023-05-14T02:46:19.286Z,94681.00
2023-05-14T02:47:19.348Z,94681.00
2023-05-14T02:48:19.301Z,94679.00
2023-05-14T02:49:19.323Z,94681.00
2023-05-14T02:50:19.390Z,94679.00
2023-05-14T02:51:19.397Z,94679.00
2023-05-14T02:52:19.429Z,94679.00
2023-05-14T02:53:19.465Z,94679.00
2023-05-14T02:54:19.522Z,94677.00
2023-05-14T02:55:19.522Z,94677.00
2023-05-14T02:56:19.540Z,94677.00
2023-05-14T02:57:19.573Z,94675.00
2023-05-14T02:58:19.617Z,94677.00
2023-05-14T02:59:20.606Z,94677.00
2023-05-14T03:00:19.595Z,94675.00
2023-05-14T03:01:19.669Z,94675.00
2023-05-14T03:02:19.590Z,94677.00
2023-05-14T03:03:19.574Z,94673.00
2023-05-14T03:04:19.581Z,94673.00
2023-05-14T03:05:19.585Z,94673.00
2023-05-14T03:06:19.523Z,94673.00
2023-05-14T03:07:19.524Z,94673.00
2023-05-14T03:08:19.540Z,94673.00
2023-05-14T03:09:19.558Z,94670.00
2023-05-14T03:10:19.564Z,94670.00
2023-05-14T03:11:19.520Z,94670.00
2023-05-14T03:12:19.546Z,94673.00
2023-05-14T03:13:19.515Z,94673.00
2023-05-14T03:14:19.490Z,94675.00
2023-05-14T03:15:19.508Z,94675.00
2023-05-14T03:16:19.606Z,94675.00
2023-05-14T03:17:19.618Z,94673.00
2023-05-14T03:18:19.621Z,94673.00
2023-05-14T03:19:19.639Z,94670.00
2023-05-14T03:20:19.680Z,94670.00
2023-05-14T03:21:19.705Z,94670.00
2023-05-14T03:22:19.734Z,94668.00
2023-05-14T03:23:19.756Z,94666.00
2023-05-14T03:24:19.796Z,94668.00
2023-05-14T03:25:19.825Z,94664.00
2023-05-14T03:26:19.863Z,94666.00
2023-05-14T03:27:19.853Z,94668.00
2023-05-14T03:28:19.900Z,94664.00
2023-05-14T03:29:19.925Z,94664.00
2023-05-14T03:30:19.973Z,94666.00
2023-05-14T03:31:20.067Z,94666.00
2023-05-14T03:32:20.133Z,94666.00
2023-05-14T03:33:20.127Z,94666.00
2023-05-14T03:34:20.089Z,94666.00
2023-05-14T03:35:20.148Z,94664.00
2023-05-14T03:36:20.133Z,94666.00
2023-05-14T03:37:20.221Z,94666.00
2023-05-14T03:38:20.232Z,94664.00
2023-05-14T03:39:20.260Z,94666.00
2023-05-14T03:40:20.271Z,94664.00
2023-05-14T03:41:20.339Z,94668.00
2023-05-14T03:42:20.342Z,94662.00
2023-05-14T03:43:20.373Z,94666.00
2023-05-14T03:44:20.410Z,94664.00
2023-05-14T03:45:20.444Z,94666.00
2023-05-14T03:46:20.470Z,94664.00
2023-05-14T03:47:20.542Z,94666.00
2023-05-14T03:48:20.654Z,94664.00
2023-05-14T03:49:20.535Z,94668.00
2023-05-14T03:50:20.729Z,94666.00
2023-05-14T03:51:20.647Z,94668.00
2023-05-14T03:52:20.690Z,94668.00
2023-05-14T03:53:20.723Z,94671.00
2023-05-14T03:54:20.731Z,94671.00
2023-05-14T03:55:20.765Z,94673.00
2023-05-14T03:56:20.851Z,94671.00
2023-05-14T03:57:20.840Z,94673.00
2023-05-14T03:58:20.912Z,94673.00
2023-05-14T03:59:20.957Z,94673.00
2023-05-14T04:00:21.047Z,94671.00
2023-05-14T04:01:21.007Z,94675.00
2023-05-14T04:02:21.042Z,94673.00
2023-05-14T04:03:21.173Z,94673.00
2023-05-14T04:04:21.100Z,94673.00
2023-05-14T04:05:21.172Z,94673.00
2023-05-14T04:06:21.224Z,94673.00
2023-05-14T04:07:21.240Z,94671.00
2023-05-14T04:08:21.251Z,94670.00
2023-05-14T04:09:21.282Z,94671.00
2023-05-14T04:10:21.467Z,94670.00
2023-05-14T04:11:21.366Z,94670.00
2023-05-14T04:12:21.389Z,94671.00
2023-05-14T04:13:21.401Z,94668.00
2023-05-14T04:14:21.470Z,94670.00
2023-05-14T04:15:21.489Z,94666.00
2023-05-14T04:16:21.524Z,94666.00
2023-05-14T04:17:21.526Z,94664.00
2023-05-14T04:18:21.586Z,94670.00
2023-05-14T04:19:21.603Z,94664.00
2023-05-14T04:20:21.847Z,94664.00
2023-05-14T04:21:21.649Z,94662.00
2023-05-14T04:22:21.794Z,94662.00
2023-05-14T04:23:21.743Z,94662.00
2023-05-14T04:24:21.773Z,94660.00
2023-05-14T04:25:21.801Z,94660.00
2023-05-14T04:26:21.824Z,94658.00
2023-05-14T04:27:21.879Z,94658.00
2023-05-14T04:28:21.928Z,94658.00
2023-05-14T04:29:21.941Z,94662.00
2023-05-14T04:30:22.046Z,94660.00
2023-05-14T04:31:22.103Z,94662.00
2023-05-14T04:32:22.074Z,94660.00
2023-05-14T04:33:22.080Z,94658.00
2023-05-14T04:34:22.114Z,94660.00
2023-05-14T04:35:24.841Z,94658.00
2023-05-14T04:36:22.232Z,94660.00
2023-05-14T04:37:22.167Z,94662.00
2023-05-14T04:38:22.150Z,94662.00
2023-05-14T04:39:22.181Z,94662.00
2023-05-14T04:40:22.541Z,94666.00
2023-05-14T04:41:22.133Z,94664.00
2023-05-14T04:42:22.112Z,94666.00
2023-05-14T04:43:22.106Z,94664.00
2023-05-14T04:44:22.115Z,94666.00
2023-05-14T04:45:22.127Z,94666.00
2023-05-14T04:46:22.141Z,94666.00
2023-05-14T04:47:22.136Z,94664.00
2023-05-14T04:48:22.137Z,94660.00
2023-05-14T04:49:22.064Z,94660.00
2023-05-14T04:50:22.424Z,94658.00
2023-05-14T04:51:22.051Z,94662.00
2023-05-14T04:52:22.048Z,94658.00
2023-05-14T04:53:22.036Z,94660.00
2023-05-14T04:54:22.124Z,94666.00
2023-05-14T04:55:22.078Z,94666.00
2023-05-14T04:56:22.063Z,94666.00
2023-05-14T04:57:22.011Z,94666.00
2023-05-14T04:58:22.028Z,94666.00
2023-05-14T04:59:22.029Z,94664.00
2023-05-14T05:00:22.474Z,94664.00
2023-05-14T05:01:22.039Z,94664.00
2023-05-14T05:02:21.998Z,94664.00
2023-05-14T05:03:22.086Z,94666.00
2023-05-14T05:04:21.958Z,94668.00
2023-05-14T05:05:21.964Z,94666.00
2023-05-14T05:06:21.983Z,94668.00
2023-05-14T05:07:21.958Z,94670.00
2023-05-14T05:08:21.970Z,94671.00
2023-05-14T05:09:21.923Z,94673.00
2023-05-14T05:10:22.160Z,94675.00
2023-05-14T05:11:21.973Z,94675.00
2023-05-14T05:12:21.923Z,94673.00
2023-05-14T05:13:21.921Z,94673.00
2023-05-14T05:14:21.929Z,94671.00
2023-05-14T05:15:21.917Z,94671.00
2023-05-14T05:16:21.932Z,94671.00
2023-05-14T05:17:21.981Z,94671.00
2023-05-14T05:18:21.887Z,94668.00
2023-05-14T05:19:29.149Z,94670.00
2023-05-14T05:20:23.023Z,94666.00
2023-05-14T05:21:21.878Z,94670.00
2023-05-14T05:22:21.839Z,94668.00
2023-05-14T05:23:21.852Z,94666.00
2023-05-14T05:24:21.906Z,94670.00
2023-05-14T05:25:21.871Z,94670.00
2023-05-14T05:26:21.820Z,94671.00
2023-05-14T05:27:21.826Z,94671.00
2023-05-14T05:28:21.791Z,94671.00
2023-05-14T05:29:21.829Z,94670.00
2023-05-14T05:30:22.015Z,94670.00
2023-05-14T05:31:21.811Z,94668.00
2023-05-14T05:32:21.832Z,94670.00
2023-05-14T05:33:21.774Z,94668.00
2023-05-14T05:34:21.821Z,94668.00
2023-05-14T05:35:21.838Z,94670.00
2023-05-14T05:36:21.863Z,94671.00
2023-05-14T05:37:21.957Z,94666.00
2023-05-14T05:38:21.917Z,94668.00
2023-05-14T05:39:21.963Z,94668.00
2023-05-14T05:40:22.152Z,94670.00
2023-05-14T05:41:21.977Z,94670.00
2023-05-14T05:42:22.028Z,94666.00
2023-05-14T05:43:21.996Z,94664.00
2023-05-14T05:44:22.027Z,94664.00
2023-05-14T05:45:22.022Z,94662.00
2023-05-14T05:46:22.085Z,94660.00
2023-05-14T05:47:22.146Z,94660.00
2023-05-14T05:48:22.130Z,94658.00
2023-05-14T05:49:22.161Z,94660.00
2023-05-14T05:50:22.513Z,94662.00
2023-05-14T05:51:22.179Z,94662.00
2023-05-14T05:52:22.234Z,94664.00
2023-05-14T05:53:22.262Z,94664.00
2023-05-14T05:54:22.275Z,94660.00
2023-05-14T05:55:22.331Z,94662.00
2023-05-14T05:56:22.370Z,94660.00
2023-05-14T05:57:22.920Z,94660.00
2023-05-14T05:58:22.371Z,94658.00
2023-05-14T05:59:22.460Z,94658.00
2023-05-14T06:00:22.680Z,94656.00
2023-05-14T06:01:22.467Z,94658.00
2023-05-14T06:02:22.568Z,94652.00
2023-05-14T06:03:22.585Z,94652.00
2023-05-14T06:04:22.533Z,94650.00
2023-05-14T06:05:22.633Z,94648.00
2023-05-14T06:06:22.592Z,94644.00
2023-05-14T06:07:22.610Z,94644.00
2023-05-14T06:08:22.685Z,94646.00
2023-05-14T06:09:22.735Z,94642.00
2023-05-14T06:10:22.887Z,94644.00
2023-05-14T06:11:22.708Z,94644.00
2023-05-14T06:12:22.788Z,94644.00
2023-05-14T06:13:22.772Z,94648.00
2023-05-14T06:14:22.805Z,94648.00
2023-05-14T06:15:22.774Z,94646.00
2023-05-14T06:16:22.858Z,94648.00
2023-05-14T06:17:22.874Z,94646.00
2023-05-14T06:18:22.840Z,94642.00
2023-05-14T06:19:23.045Z,94644.00
2023-05-14T06:20:23.038Z,94642.00
2023-05-14T06:21:22.917Z,94640.00
2023-05-14T06:22:22.939Z,94640.00
2023-05-14T06:23:22.896Z,94642.00
2023-05-14T06:24:22.940Z,94642.00
2023-05-14T06:25:22.949Z,94644.00
2023-05-14T06:26:22.965Z,94642.00
2023-05-14T06:27:22.987Z,94638.00
2023-05-14T06:28:22.990Z,94638.00
2023-05-14T06:29:23.020Z,94636.00
2023-05-14T06:30:23.562Z,94636.00
2023-05-14T06:31:23.066Z,94634.00
2023-05-14T06:32:23.174Z,94638.00
2023-05-14T06:33:23.083Z,94634.00
2023-05-14T06:34:23.076Z,94634.00
2023-05-14T06:35:23.102Z,94634.00
2023-05-14T06:36:23.108Z,94625.00
2023-05-14T06:37:23.087Z,94623.00
2023-05-14T06:38:23.167Z,94623.00
2023-05-14T06:39:23.172Z,94621.00
2023-05-14T06:40:23.507Z,94625.00
2023-05-14T06:41:23.151Z,94625.00
2023-05-14T06:42:23.148Z,94623.00
2023-05-14T06:43:23.184Z,94623.00
2023-05-14T06:44:23.220Z,94634.00
2023-05-14T06:45:23.207Z,94634.00
2023-05-14T06:46:23.164Z,94634.00
2023-05-14T06:47:23.280Z,94632.00
2023-05-14T06:48:23.352Z,94634.00
2023-05-14T06:49:23.217Z,94632.00
2023-05-14T06:50:23.427Z,94625.00
2023-05-14T06:51:23.188Z,94625.00
2023-05-14T06:52:23.189Z,94632.00
2023-05-14T06:53:23.214Z,94625.00
2023-05-14T06:54:23.198Z,94625.00
2023-05-14T06:55:23.194Z,94632.00
2023-05-14T06:56:23.209Z,94634.00
2023-05-14T06:57:23.216Z,94634.00
2023-05-14T06:58:23.205Z,94634.00
2023-05-14T06:59:23.204Z,94634.00
2023-05-14T07:00:23.357Z,94623.00
2023-05-14T07:01:23.243Z,94625.00
2023-05-14T07:02:23.255Z,94623.00
2023-05-14T07:03:23.182Z,94623.00
2023-05-14T07:04:23.259Z,94623.00
2023-05-14T07:05:23.229Z,94619.00
2023-05-14T07:06:23.217Z,94619.00
2023-05-14T07:07:23.224Z,94619.00
2023-05-14T07:08:23.203Z,94619.00
2023-05-14T07:09:23.210Z,94615.00
2023-05-14T07:10:23.393Z,94617.00
2023-05-14T07:11:23.218Z,94615.00
2023-05-14T07:12:23.225Z,94615.00
2023-05-14T07:13:23.237Z,94619.00
2023-05-14T07:14:23.241Z,94615.00
2023-05-14T07:15:23.264Z,94617.00
2023-05-14T07:16:23.284Z,94615.00
2023-05-14T07:17:23.485Z,94617.00
2023-05-14T07:18:23.306Z,94617.00
2023-05-14T07:19:23.274Z,94615.00
2023-05-14T07:20:23.474Z,94615.00
2023-05-14T07:21:23.408Z,94611.00
2023-05-14T07:22:23.303Z,94607.00
2023-05-14T07:23:23.272Z,94605.00
2023-05-14T07:24:23.295Z,94603.00
2023-05-14T07:25:23.306Z,94601.00
2023-05-14T07:26:23.311Z,94599.00
2023-05-14T07:27:23.262Z,94595.00
2023-05-14T07:28:23.266Z,94595.00
2023-05-14T07:29:23.274Z,94595.00
2023-05-14T07:30:23.515Z,94593.00
2023-05-14T07:31:23.350Z,94593.00
2023-05-14T07:32:23.273Z,94589.00
2023-05-14T07:33:23.249Z,94589.00
2023-05-14T07:34:23.245Z,94589.00
2023-05-14T07:35:23.222Z,94585.00
2023-05-14T07:36:23.279Z,94581.00
2023-05-14T07:37:24.082Z,94581.00
2023-05-14T07:38:23.266Z,94577.00
2023-05-14T07:39:23.279Z,94575.00
2023-05-14T07:40:23.417Z,94579.00
2023-05-14T07:41:23.227Z,94575.00
2023-05-14T07:42:35.352Z,94575.00
2023-05-14T07:43:24.224Z,94575.00
2023-05-14T07:44:23.200Z,94571.00
2023-05-14T07:45:23.178Z,94571.00
2023-05-14T07:46:23.195Z,94564.00
2023-05-14T07:47:23.217Z,94566.00
2023-05-14T07:48:23.222Z,94564.00
2023-05-14T07:49:23.171Z,94564.00
2023-05-14T07:50:23.266Z,94564.00
2023-05-14T07:51:23.145Z,94564.00
2023-05-14T07:52:23.200Z,94566.00
2023-05-14T07:54:11.767Z,94564.00
2023-05-14T07:55:11.679Z,94564.00
2023-05-14T07:56:11.678Z,94562.00
2023-05-14T07:57:11.670Z,94562.00
2023-05-14T07:58:11.651Z,94560.00
2023-05-14T07:59:11.632Z,94560.00
2023-05-14T08:00:11.644Z,94558.00
2023-05-14T08:01:11.610Z,94558.00
2023-05-14T08:02:11.621Z,94554.00
2023-05-14T08:03:11.698Z,94554.00
2023-05-14T08:04:11.683Z,94548.00
2023-05-14T08:05:11.614Z,94548.00
2023-05-14T08:06:11.591Z,94550.00
2023-05-14T08:07:11.566Z,94546.00
2023-05-14T08:08:11.602Z,94544.00
2023-05-14T08:09:11.604Z,94544.00
2023-05-14T08:10:11.543Z,94544.00
2023-05-14T08:11:11.594Z,94540.00
2023-05-14T08:12:11.534Z,94542.00
2023-05-14T08:13:11.524Z,94540.00
2023-05-14T08:14:11.529Z,94540.00
2023-05-14T08:15:11.547Z,94536.00
2023-05-14T08:16:11.556Z,94534.00
2023-05-14T08:17:11.578Z,94532.00
2023-05-14T08:18:11.566Z,94530.00
2023-05-14T08:19:11.586Z,94528.00
2023-05-14T08:20:11.524Z,94526.00
2023-05-14T08:21:11.471Z,94528.00
2023-05-14T08:22:11.483Z,94528.00
2023-05-14T08:23:11.490Z,94530.00
2023-05-14T08:24:11.469Z,94526.00
2023-05-14T08:25:11.440Z,94528.00
2023-05-14T08:26:11.462Z,94524.00
2023-05-14T08:27:11.413Z,94524.00
2023-05-14T08:28:11.450Z,94526.00
2023-05-14T08:29:12.829Z,94526.00
2023-05-14T08:30:11.601Z,94524.00
2023-05-14T08:31:11.683Z,94523.00
2023-05-14T08:32:22.041Z,94523.00
2023-05-14T08:33:12.668Z,94521.00
2023-05-14T08:34:11.629Z,94524.00
2023-05-14T08:35:11.594Z,94521.00
2023-05-14T08:36:11.623Z,94521.00
2023-05-14T08:37:11.596Z,94523.00
2023-05-14T08:38:11.605Z,94523.00
2023-05-14T08:39:11.598Z,94523.00
2023-05-14T08:40:11.546Z,94519.00
2023-05-14T08:41:11.564Z,94519.00
2023-05-14T08:42:11.577Z,94517.00
2023-05-14T08:43:11.553Z,94517.00
2023-05-14T08:44:11.539Z,94517.00
2023-05-14T08:45:11.526Z,94513.00
2023-05-14T08:46:11.489Z,94517.00
2023-05-14T08:47:11.526Z,94513.00
2023-05-14T08:48:11.548Z,94513.00
2023-05-14T08:49:11.677Z,94515.00
2023-05-14T08:50:11.523Z,94513.00
2023-05-14T08:51:11.477Z,94511.00
2023-05-14T08:52:11.501Z,94511.00
2023-05-14T08:53:11.455Z,94511.00
2023-05-14T08:54:11.455Z,94509.00
2023-05-14T08:55:11.460Z,94509.00
2023-05-14T08:56:11.441Z,94509.00
2023-05-14T08:57:11.469Z,94507.00
2023-05-14T08:58:11.446Z,94507.00
2023-05-14T08:59:11.427Z,94505.00
2023-05-14T09:00:11.438Z,94505.00
2023-05-14T09:01:11.443Z,94505.00
2023-05-14T09:02:11.553Z,94505.00
2023-05-14T09:03:11.423Z,94505.00
2023-05-14T09:04:11.454Z,94501.00
2023-05-14T09:05:11.364Z,94503.00
2023-05-14T09:06:11.428Z,94503.00
2023-05-14T09:07:11.452Z,94507.00
2023-05-14T09:08:11.436Z,94503.00
2023-05-14T09:09:11.447Z,94505.00
2023-05-14T09:10:11.505Z,94503.00
2023-05-14T09:11:11.558Z,94507.00
2023-05-14T09:12:11.560Z,94505.00
2023-05-14T09:13:11.616Z,94505.00
2023-05-14T09:14:11.682Z,94501.00
2023-05-14T09:15:11.740Z,94503.00
2023-05-14T09:16:11.828Z,94501.00
2023-05-14T09:17:11.858Z,94501.00
2023-05-14T09:18:11.961Z,94499.00
2023-05-14T09:19:12.089Z,94497.00
2023-05-14T09:20:12.038Z,94493.00
2023-05-14T09:21:12.085Z,94491.00
2023-05-14T09:22:12.156Z,94489.00
2023-05-14T09:23:12.205Z,94487.00
2023-05-14T09:24:12.265Z,94481.00
2023-05-14T09:25:12.511Z,94479.00
2023-05-14T09:26:12.405Z,94481.00
2023-05-14T09:27:12.434Z,94479.00
2023-05-14T09:28:12.494Z,94477.00
2023-05-14T09:29:12.548Z,94476.00
2023-05-14T09:30:12.749Z,94479.00
2023-05-14T09:31:12.695Z,94477.00
2023-05-14T09:32:12.729Z,94477.00
2023-05-14T09:33:12.785Z,94477.00
2023-05-14T09:34:12.844Z,94477.00
2023-05-14T09:35:12.904Z,94474.00
2023-05-14T09:36:12.940Z,94474.00
2023-05-14T09:37:13.025Z,94474.00
2023-05-14T09:38:13.077Z,94470.00
2023-05-14T09:39:13.203Z,94470.00
2023-05-14T09:40:13.180Z,94472.00
2023-05-14T09:41:13.294Z,94468.00
2023-05-14T09:42:13.256Z,94466.00
2023-05-14T09:43:13.376Z,94462.00
2023-05-14T09:44:13.380Z,94460.00
2023-05-14T09:45:13.406Z,94462.00
2023-05-14T09:46:13.481Z,94460.00
2023-05-14T09:47:13.565Z,94458.00
2023-05-14T09:48:13.706Z,94456.00
2023-05-14T09:49:13.636Z,94454.00
2023-05-14T09:50:13.674Z,94452.00
2023-05-14T09:51:13.729Z,94452.00
2023-05-14T09:52:13.792Z,94448.00
2023-05-14T09:53:13.855Z,94448.00
2023-05-14T09:54:13.843Z,94446.00
2023-05-14T09:55:13.894Z,94446.00
2023-05-14T09:56:13.965Z,94446.00
2023-05-14T09:57:13.972Z,94444.00
2023-05-14T09:58:14.024Z,94446.00
2023-05-14T09:59:14.051Z,94444.00
2023-05-14T10:00:14.090Z,94444.00
2023-05-14T10:01:14.185Z,94444.00
2023-05-14T10:02:14.160Z,94444.00
2023-05-14T10:03:14.685Z,94444.00
2023-05-14T10:04:14.310Z,94442.00
2023-05-14T10:05:14.268Z,94434.00
2023-05-14T10:06:14.318Z,94438.00
2023-05-14T10:07:14.360Z,94428.00
2023-05-14T10:08:14.377Z,94432.00
2023-05-14T10:09:14.417Z,94430.00
2023-05-14T10:10:14.435Z,94434.00
2023-05-14T10:11:14.480Z,94432.00
2023-05-14T10:12:14.516Z,94432.00
2023-05-14T10:13:14.532Z,94432.00
2023-05-14T10:14:14.554Z,94430.00
2023-05-14T10:15:14.600Z,94430.00
2023-05-14T10:16:14.641Z,94432.00
2023-05-14T10:17:14.758Z,94432.00
2023-05-14T10:18:14.750Z,94430.00
2023-05-14T10:19:14.807Z,94434.00
2023-05-14T10:20:14.735Z,94430.00
2023-05-14T10:21:14.818Z,94428.00
2023-05-14T10:22:14.809Z,94430.00
2023-05-14T10:23:14.858Z,94424.00
2023-05-14T10:24:14.868Z,94426.00
2023-05-14T10:25:14.911Z,94424.00
2023-05-14T10:26:14.937Z,94422.00
2023-05-14T10:27:14.963Z,94421.00
2023-05-14T10:28:14.993Z,94417.00
2023-05-14T10:29:15.030Z,94417.00
2023-05-14T10:30:15.062Z,94415.00
2023-05-14T10:31:15.088Z,94413.00
2023-05-14T10:32:15.090Z,94415.00
2023-05-14T10:33:15.253Z,94411.00
2023-05-14T10:34:15.136Z,94415.00
2023-05-14T10:35:15.152Z,94415.00
2023-05-14T10:36:15.199Z,94413.00
2023-05-14T10:37:15.225Z,94415.00
2023-05-14T10:38:15.237Z,94415.00
2023-05-14T10:39:15.295Z,94415.00
2023-05-14T10:40:15.283Z,94415.00
2023-05-14T10:41:15.309Z,94415.00
2023-05-14T10:42:15.345Z,94413.00
2023-05-14T10:43:15.339Z,94411.00
2023-05-14T10:44:15.380Z,94413.00
2023-05-14T10:45:15.398Z,94413.00
2023-05-14T10:46:15.463Z,94409.00
2023-05-14T10:47:15.447Z,94411.00
2023-05-14T10:48:15.577Z,94409.00
2023-05-14T10:49:20.976Z,94409.00
2023-05-14T10:50:16.485Z,94411.00
2023-05-14T10:51:15.492Z,94413.00
2023-05-14T10:52:15.453Z,94407.00
2023-05-14T10:53:15.476Z,94409.00
2023-05-14T10:54:15.450Z,94407.00
2023-05-14T10:55:15.475Z,94405.00
2023-05-14T10:56:15.425Z,94401.00
2023-05-14T10:57:15.439Z,94399.00
2023-05-14T10:58:15.454Z,94399.00
2023-05-14T10:59:15.404Z,94397.00
2023-05-14T11:00:15.436Z,94395.00
2023-05-14T11:01:15.392Z,94393.00
2023-05-14T11:02:15.454Z,94393.00
2023-05-14T11:03:15.465Z,94389.00
2023-05-14T11:04:15.423Z,94385.00
2023-05-14T11:05:15.615Z,94381.00
2023-05-14T11:06:15.399Z,94381.00
2023-05-14T11:07:15.430Z,94381.00
2023-05-14T11:08:15.478Z,94379.00
2023-05-14T11:09:15.487Z,94379.00
2023-05-14T11:10:15.511Z,94379.00
2023-05-14T11:11:15.572Z,94377.00
2023-05-14T11:12:15.606Z,94377.00
2023-05-14T11:13:15.640Z,94379.00
2023-05-14T11:14:15.688Z,94377.00
2023-05-14T11:15:15.685Z,94368.00
2023-05-14T11:17:16.732Z,94368.00
2023-05-14T11:18:15.747Z,94375.00
2023-05-14T11:19:15.869Z,94368.00
2023-05-14T11:20:15.725Z,94364.00
2023-05-14T11:21:15.705Z,94366.00
2023-05-14T11:22:15.685Z,94360.00
2023-05-14T11:23:15.664Z,94362.00
2023-05-14T11:24:15.654Z,94356.00
2023-05-14T11:25:15.682Z,94356.00
2023-05-14T11:26:15.729Z,94356.00
2023-05-14T11:27:15.674Z,94352.00
2023-05-14T11:28:15.627Z,94356.00
2023-05-14T11:29:15.634Z,94354.00
2023-05-14T11:30:15.624Z,94356.00
2023-05-14T11:31:15.698Z,94354.00
2023-05-14T11:32:15.684Z,94356.00
2023-05-14T11:33:15.728Z,94354.00
2023-05-14T11:34:15.776Z,94350.00
2023-05-14T11:35:15.767Z,94352.00
2023-05-14T11:36:15.794Z,94348.00
2023-05-14T11:37:15.824Z,94348.00
2023-05-14T11:38:15.821Z,94346.00
2023-05-14T11:39:15.863Z,94344.00
2023-05-14T11:40:15.886Z,94346.00
2023-05-14T11:41:15.882Z,94344.00
2023-05-14T11:42:15.927Z,94342.00
2023-05-14T11:43:15.956Z,94342.00
2023-05-14T11:44:15.981Z,94342.00
2023-05-14T11:45:15.987Z,94340.00
2023-05-14T11:46:16.093Z,94340.00